Time;durP1;ratioP1;P1;durP2;ratioP2;P2;SDS_P1;SDS_P2;PMS_P1;PMS_P2;Temp;Humidity;BMP_temperature;BMP_pressure;BME280_temperature;BME280_humidity;BME280_pressure;Samples;Min_cycle;Max_cycle;Signal;HPM_P1;HPM_P2
2022/07/09 03:01:05;;;;;;;3.80;1.20;;;13.40;92.10;;;;;;5991899;23;88912;31
2022/07/09 03:03:35;;;;;;;2.35;0.63;;;13.30;92.80;;;;;;4876766;28;86997;-70
2022/07/09 03:06:01;;;;;;;3.03;1.00;;;13.30;92.70;;;;;;4878465;28;87854;-71
2022/07/09 03:08:27;;;;;;;2.92;0.80;;;13.30;93.00;;;;;;4879745;28;86998;-69
2022/07/09 03:10:53;;;;;;;2.60;1.02;;;13.30;92.50;;;;;;4880153;28;87146;-68
2022/07/09 03:13:18;;;;;;;3.00;0.80;;;13.20;92.30;;;;;;4879552;28;86890;-69
2022/07/09 03:15:44;;;;;;;3.83;0.80;;;13.10;92.20;;;;;;4880111;28;86936;-70
2022/07/09 03:18:10;;;;;;;1.95;0.80;;;13.10;92.30;;;;;;4880377;28;86961;-69
2022/07/09 03:20:36;;;;;;;3.72;0.60;;;13.10;92.80;;;;;;4879883;28;86981;-70
2022/07/09 03:23:03;;;;;;;3.08;0.60;;;13.10;92.80;;;;;;4880463;28;87849;-71
2022/07/09 03:25:30;;;;;;;4.80;0.68;;;13.10;92.50;;;;;;4880054;28;87062;-71
2022/07/09 03:27:56;;;;;;;5.70;0.90;;;13.20;92.70;;;;;;4880433;28;87498;-69
2022/07/09 03:30:23;;;;;;;2.75;0.63;;;13.20;92.70;;;;;;4878630;28;88151;-70
2022/07/09 03:32:49;;;;;;;1.60;0.50;;;13.20;92.80;;;;;;4879955;28;88664;-69
2022/07/09 03:35:15;;;;;;;3.83;0.63;;;13.10;92.70;;;;;;4880317;28;87165;-70
2022/07/09 03:37:41;;;;;;;2.90;0.70;;;13.10;92.90;;;;;;4879937;28;87335;-69
2022/07/09 03:40:07;;;;;;;3.95;0.70;;;13.10;92.80;;;;;;4879858;28;86931;-69
2022/07/09 03:42:33;;;;;;;3.15;0.80;;;13.10;92.70;;;;;;4879365;28;87372;-72
2022/07/09 03:44:58;;;;;;;3.72;0.70;;;13.10;92.80;;;;;;4879543;28;88028;-68
2022/07/09 03:47:24;;;;;;;3.45;0.82;;;13.10;93.30;;;;;;4879993;28;86263;-68
2022/07/09 03:49:50;;;;;;;2.15;0.70;;;13.10;93.60;;;;;;4879323;28;87062;-70
2022/07/09 03:52:15;;;;;;;2.75;0.80;;;13.10;93.20;;;;;;4878877;28;86493;-69
2022/07/09 03:54:41;;;;;;;4.80;0.98;;;13.10;93.30;;;;;;4879040;28;87945;-69
2022/07/09 03:57:07;;;;;;;3.30;0.70;;;13.10;93.00;;;;;;4879226;28;87091;-71
2022/07/09 03:59:32;;;;;;;2.80;0.90;;;13.10;92.70;;;;;;4878829;28;88171;-70
2022/07/09 04:01:58;;;;;;;6.45;0.88;;;13.20;92.70;;;;;;4875792;28;87494;-69
2022/07/09 04:04:24;;;;;;;4.55;1.00;;;13.40;92.50;;;;;;4878048;28;86869;-72
2022/07/09 04:06:49;;;;;;;4.65;0.93;;;13.60;91.70;;;;;;4878318;28;86991;-70
2022/07/09 04:09:15;;;;;;;3.60;0.80;;;13.70;91.30;;;;;;4878764;28;87221;-70
2022/07/09 04:11:41;;;;;;;5.35;0.88;;;13.90;90.50;;;;;;4879102;28;86027;-71
2022/07/09 04:14:06;;;;;;;4.15;0.90;;;14.10;90.30;;;;;;4878862;28;86806;-70
2022/07/09 04:16:32;;;;;;;2.58;0.88;;;14.20;90.10;;;;;;4878224;28;87202;-70
2022/07/09 04:18:59;;;;;;;2.83;1.05;;;14.50;89.00;;;;;;4878267;28;87690;-70
2022/07/09 04:21:24;;;;;;;4.72;1.15;;;14.90;86.90;;;;;;4877861;28;88967;-70
2022/07/09 04:23:51;;;;;;;2.47;0.80;;;15.20;85.00;;;;;;4879020;28;86873;-70
2022/07/09 04:26:20;;;;;;;2.72;0.85;;;15.60;82.60;;;;;;4879222;28;87442;-70
2022/07/09 04:28:46;;;;;;;4.43;0.98;;;16.10;81.90;;;;;;4879598;28;87933;-70
2022/07/09 04:31:12;;;;;;;4.32;0.70;;;16.30;78.70;;;;;;4882119;28;87946;-69
2022/07/09 04:33:37;;;;;;;3.70;0.80;;;16.20;77.40;;;;;;4881748;28;87202;-69
2022/07/09 04:36:03;;;;;;;3.78;0.77;;;16.00;78.40;;;;;;4881780;28;86043;-70
2022/07/09 04:38:29;;;;;;;2.85;0.82;;;16.10;77.60;;;;;;4881199;28;90095;-70
2022/07/09 04:40:55;;;;;;;3.80;1.05;;;16.10;77.40;;;;;;4881659;28;87237;-70
2022/07/09 04:43:21;;;;;;;3.33;0.70;;;16.30;77.00;;;;;;4881636;28;87867;-70
2022/07/09 04:45:47;;;;;;;5.05;0.93;;;16.40;76.30;;;;;;4881033;28;86887;-70
2022/07/09 04:48:12;;;;;;;3.85;0.57;;;17.10;76.30;;;;;;4880653;28;88423;-70
2022/07/09 04:50:38;;;;;;;3.47;0.70;;;18.10;72.20;;;;;;4881872;28;87382;-71
2022/07/09 04:53:04;;;;;;;3.13;0.70;;;19.20;69.80;;;;;;4881155;28;86919;-71
2022/07/09 04:55:30;;;;;;;3.55;0.70;;;19.60;66.90;;;;;;4881250;28;87095;-72
2022/07/09 04:57:56;;;;;;;2.22;0.73;;;20.10;64.40;;;;;;4881505;28;87406;-71
2022/07/09 05:00:22;;;;;;;2.80;0.90;;;20.10;64.10;;;;;;4881520;28;86768;-70
2022/07/09 05:02:47;;;;;;;3.65;0.73;;;20.90;61.20;;;;;;4880455;28;87065;-70
2022/07/09 05:05:13;;;;;;;4.07;0.70;;;20.40;62.20;;;;;;4881065;28;87116;-70
2022/07/09 05:07:41;;;;;;;1.77;0.50;;;19.90;65.70;;;;;;4880899;28;87920;-69
2022/07/09 05:10:08;;;;;;;5.80;0.52;;;20.80;62.30;;;;;;4881632;28;88030;-70
2022/07/09 05:12:34;;;;;;;2.35;0.82;;;21.10;61.30;;;;;;4871637;28;86943;-70
2022/07/09 05:14:59;;;;;;;2.35;0.60;;;22.30;58.30;;;;;;4881501;28;87273;-71
2022/07/09 05:17:25;;;;;;;3.42;0.75;;;22.90;58.60;;;;;;4880594;28;88533;-71
2022/07/09 05:19:51;;;;;;;1.95;0.82;;;23.70;54.70;;;;;;4881173;28;87332;-73
2022/07/09 05:22:16;;;;;;;3.25;0.90;;;24.20;54.20;;;;;;4881174;28;87438;-71
2022/07/09 05:24:42;;;;;;;2.83;0.68;;;24.40;53.20;;;;;;4881077;28;86257;-73
2022/07/09 05:27:09;;;;;;;2.90;0.95;;;25.50;51.50;;;;;;4880781;28;87622;-72
2022/07/09 05:29:35;;;;;;;1.95;0.77;;;25.10;52.50;;;;;;4881580;28;88416;-71
2022/07/09 05:32:01;;;;;;;4.60;0.82;;;26.40;50.30;;;;;;4873903;28;88252;-74
2022/07/09 05:34:27;;;;;;;3.67;0.90;;;26.80;48.70;;;;;;4886671;28;87066;-74
2022/07/09 05:36:54;;;;;;;4.72;1.00;;;27.60;47.50;;;;;;4883680;28;87021;-71
2022/07/09 05:39:20;;;;;;;3.47;0.70;;;28.20;47.20;;;;;;4880464;28;88104;-71
2022/07/09 05:41:46;;;;;;;2.88;0.80;;;28.90;45.40;;;;;;4879716;28;87349;-72
2022/07/09 05:44:11;;;;;;;7.00;1.52;;;29.10;45.80;;;;;;4880465;28;87019;-71
2022/07/09 05:46:37;;;;;;;5.80;1.20;;;30.00;43.70;;;;;;4880677;28;87574;-72
2022/07/09 05:49:03;;;;;;;3.85;0.70;;;30.90;42.60;;;;;;4882101;28;86965;-72
2022/07/09 05:51:29;;;;;;;3.83;0.88;;;31.70;42.50;;;;;;4881660;28;87679;-72
2022/07/09 05:53:54;;;;;;;5.22;1.02;;;32.30;40.50;;;;;;4880372;28;86928;-74
2022/07/09 05:56:21;;;;;;;2.28;1.05;;;32.60;39.90;;;;;;4879434;28;88621;-71
2022/07/09 05:58:47;;;;;;;2.45;0.90;;;33.10;37.60;;;;;;4880766;28;88014;-71
2022/07/09 06:01:13;;;;;;;2.28;0.90;;;33.00;38.00;;;;;;4867671;28;86886;-70
2022/07/09 06:03:40;;;;;;;4.78;1.23;;;33.60;37.10;;;;;;4881069;28;86742;-71
2022/07/09 06:06:06;;;;;;;1.48;0.77;;;34.10;37.10;;;;;;4880168;28;87667;-73
2022/07/09 06:08:33;;;;;;;3.58;1.20;;;34.60;36.30;;;;;;4884110;28;87222;-73
2022/07/09 06:10:59;;;;;;;3.40;1.05;;;35.00;36.30;;;;;;4881015;28;87075;-72
2022/07/09 06:13:25;;;;;;;2.60;1.02;;;35.10;35.40;;;;;;4880969;28;86156;-73
2022/07/09 06:15:51;;;;;;;3.13;1.00;;;35.50;34.30;;;;;;4877041;28;88178;-72
2022/07/09 06:18:17;;;;;;;2.25;1.05;;;35.90;35.00;;;;;;4880670;28;87425;-72
2022/07/09 06:20:44;;;;;;;1.83;0.93;;;36.20;34.90;;;;;;4880905;28;89620;-71
2022/07/09 06:23:10;;;;;;;4.35;1.08;;;36.80;34.00;;;;;;4880488;28;86708;-72
2022/07/09 06:25:37;;;;;;;3.22;1.13;;;36.70;32.90;;;;;;4874248;28;87134;-72
2022/07/09 06:28:03;;;;;;;1.80;1.38;;;36.70;32.30;;;;;;4875308;28;87131;-72
2022/07/09 06:30:29;;;;;;;2.50;1.33;;;36.20;32.50;;;;;;4880659;28;86987;-71
2022/07/09 06:32:55;;;;;;;3.47;0.95;;;34.50;34.10;;;;;;4873891;28;86996;-72
2022/07/09 06:35:20;;;;;;;2.10;1.17;;;34.90;34.00;;;;;;4870306;28;88254;-73
2022/07/09 06:37:46;;;;;;;3.75;1.17;;;35.40;34.10;;;;;;4876223;28;86699;-73
2022/07/09 06:40:12;;;;;;;2.03;0.90;;;36.00;35.40;;;;;;4879853;28;87376;-76
2022/07/09 06:42:39;;;;;;;3.95;1.02;;;36.40;34.20;;;;;;4875695;28;87652;-73
2022/07/09 06:45:06;;;;;;;4.03;1.45;;;37.30;33.60;;;;;;4878416;28;88083;-73
2022/07/09 06:47:32;;;;;;;3.97;1.33;;;36.90;32.90;;;;;;4881014;28;87836;-73
2022/07/09 06:49:57;;;;;;;4.50;1.95;;;35.80;35.20;;;;;;4878973;28;87139;-74
2022/07/09 06:52:23;;;;;;;4.45;1.38;;;36.20;35.70;;;;;;4877468;28;87078;-74
2022/07/09 06:54:49;;;;;;;5.45;1.92;;;37.30;34.50;;;;;;4880676;28;87114;-75
2022/07/09 06:57:16;;;;;;;3.25;1.55;;;37.30;34.30;;;;;;4880793;28;87070;-74
2022/07/09 06:59:42;;;;;;;4.43;1.52;;;36.70;35.40;;;;;;4881294;28;87106;-74
2022/07/09 07:02:08;;;;;;;3.20;1.50;;;37.10;34.70;;;;;;4862599;28;86779;-74
2022/07/09 07:04:34;;;;;;;3.55;1.77;;;37.50;35.00;;;;;;4880480;28;88114;-73
2022/07/09 07:06:59;;;;;;;4.72;1.83;;;38.20;34.50;;;;;;4879404;28;87782;-74
2022/07/09 07:09:25;;;;;;;4.10;1.88;;;38.30;35.30;;;;;;4879451;28;87984;-74
2022/07/09 07:11:51;;;;;;;3.47;2.03;;;39.30;34.10;;;;;;4880821;28;87328;-75
2022/07/09 07:14:17;;;;;;;4.45;1.77;;;37.50;36.10;;;;;;4880377;28;87345;-73
2022/07/09 07:16:43;;;;;;;4.38;1.30;;;38.20;34.50;;;;;;4878790;28;87559;-74
2022/07/09 07:19:10;;;;;;;1.73;1.23;;;39.10;34.00;;;;;;4880907;28;87120;-74
2022/07/09 07:21:37;;;;;;;3.42;1.83;;;39.50;33.30;;;;;;4878667;28;87102;-76
2022/07/09 07:24:04;;;;;;;3.38;1.95;;;39.10;34.30;;;;;;4879762;28;87356;-74
2022/07/09 07:26:29;;;;;;;3.65;1.85;;;40.10;33.60;;;;;;4862670;28;90897;-74
2022/07/09 07:28:55;;;;;;;6.68;2.17;;;40.80;32.60;;;;;;4880167;28;88391;-75
2022/07/09 07:31:22;;;;;;;3.10;1.55;;;40.90;33.00;;;;;;4879632;28;86920;-76
2022/07/09 07:33:49;;;;;;;3.33;1.75;;;40.40;32.90;;;;;;4877595;28;87849;-74
2022/07/09 07:36:15;;;;;;;3.13;2.35;;;41.00;32.80;;;;;;4879676;28;88225;-76
2022/07/09 07:38:40;;;;;;;7.45;2.35;;;41.90;32.00;;;;;;4874803;28;87453;-73
2022/07/09 07:41:06;;;;;;;3.35;2.45;;;42.80;31.10;;;;;;4874794;28;86985;-74
2022/07/09 07:43:32;;;;;;;5.53;2.33;;;42.50;30.70;;;;;;4875444;28;88546;-73
2022/07/09 07:45:58;;;;;;;4.18;2.15;;;41.30;32.10;;;;;;4873596;28;87125;-75
2022/07/09 07:48:23;;;;;;;4.03;2.17;;;40.00;33.00;;;;;;4873764;28;87054;-77
2022/07/09 07:50:49;;;;;;;3.25;2.33;;;41.30;32.20;;;;;;4875787;28;86533;-75
2022/07/09 07:53:15;;;;;;;3.03;2.28;;;40.20;33.40;;;;;;4869746;28;88463;-76
2022/07/09 07:55:41;;;;;;;9.50;2.78;;;41.40;33.20;;;;;;4873573;28;87000;-74
2022/07/09 07:58:06;;;;;;;3.38;2.55;;;40.20;33.60;;;;;;4872793;28;87968;-73
2022/07/09 08:00:32;;;;;;;3.90;2.58;;;40.90;33.10;;;;;;4873988;28;88527;-74
2022/07/09 08:02:58;;;;;;;4.20;2.65;;;42.20;31.70;;;;;;4867485;28;87997;-75
2022/07/09 08:05:25;;;;;;;3.97;2.70;;;43.10;32.10;;;;;;4875590;28;88726;-71
2022/07/09 08:07:50;;;;;;;5.07;2.45;;;43.70;30.50;;;;;;4874326;28;87319;-73
2022/07/09 08:10:16;;;;;;;3.60;2.53;;;43.50;30.90;;;;;;4876324;28;87132;-71
2022/07/09 08:12:42;;;;;;;4.65;2.67;;;44.70;31.00;;;;;;4877595;28;88837;-72
2022/07/09 08:15:08;;;;;;;4.80;2.70;;;45.10;30.00;;;;;;4879847;28;86718;-72
2022/07/09 08:17:33;;;;;;;5.32;3.03;;;45.50;29.60;;;;;;4878542;28;87175;-75
2022/07/09 08:19:59;;;;;;;4.05;2.42;;;45.70;29.90;;;;;;4877423;28;89515;-73
2022/07/09 08:22:25;;;;;;;3.75;2.53;;;44.50;30.20;;;;;;4874278;28;88642;-73
2022/07/09 08:24:50;;;;;;;3.67;2.47;;;44.40;30.00;;;;;;4873824;28;87210;-71
2022/07/09 08:27:16;;;;;;;4.82;3.50;;;45.80;29.80;;;;;;4871932;28;87112;-74
2022/07/09 08:29:42;;;;;;;4.95;3.38;;;46.10;29.60;;;;;;4870406;28;88519;-75
2022/07/09 08:32:08;;;;;;;3.97;3.33;;;45.40;30.00;;;;;;4871833;28;88447;-74
2022/07/09 08:34:34;;;;;;;3.67;3.28;;;46.30;29.00;;;;;;4874812;28;87987;-75
2022/07/09 08:36:59;;;;;;;5.30;3.22;;;46.30;29.30;;;;;;4874090;28;87597;-73
2022/07/09 08:39:25;;;;;;;6.63;2.97;;;46.60;29.00;;;;;;4870201;28;86441;-74
2022/07/09 08:41:51;;;;;;;3.72;2.78;;;46.60;29.50;;;;;;4877555;28;88586;-75
2022/07/09 08:44:19;;;;;;;7.63;3.65;;;45.40;29.90;;;;;;4876199;28;87058;-70
2022/07/09 08:46:45;;;;;;;5.97;3.45;;;44.10;30.20;;;;;;4876186;28;87889;-75
2022/07/09 08:49:14;;;;;;;2.90;2.47;;;43.90;30.60;;;;;;4880812;28;87440;-70
2022/07/09 08:51:42;;;;;;;3.65;2.63;;;43.30;31.70;;;;;;4880109;28;87095;-75
2022/07/09 08:54:08;;;;;;;4.85;2.75;;;43.30;31.10;;;;;;4879902;28;87083;-73
2022/07/09 08:56:35;;;;;;;4.80;3.17;;;44.40;30.50;;;;;;4874744;28;87498;-76
2022/07/09 08:59:01;;;;;;;5.88;2.42;;;43.80;31.00;;;;;;4875305;28;86841;-75
2022/07/09 09:01:27;;;;;;;3.13;2.28;;;43.70;30.00;;;;;;4871335;28;87663;-74
2022/07/09 09:03:54;;;;;;;4.55;2.75;;;45.10;29.70;;;;;;4874950;28;88882;-73
2022/07/09 09:06:23;;;;;;;2.55;2.35;;;46.70;28.50;;;;;;4875343;28;87228;-75
2022/07/09 09:08:52;;;;;;;4.45;3.30;;;48.20;28.10;;;;;;4875249;28;87479;-71
2022/07/09 09:11:24;;;;;;;4.43;3.65;;;47.90;27.40;;;;;;4878394;28;88564;-74
2022/07/09 09:13:50;;;;;;;6.75;3.13;;;47.70;27.00;;;;;;4878193;28;87378;-75
2022/07/09 09:16:18;;;;;;;3.42;2.88;;;47.60;26.50;;;;;;4876982;28;87438;-75
2022/07/09 09:18:48;;;;;;;5.20;3.10;;;47.80;27.00;;;;;;4874981;28;88047;-78
2022/07/09 09:21:16;;;;;;;3.85;3.03;;;47.40;27.40;;;;;;4881200;28;87916;-74
2022/07/09 09:23:42;;;;;;;3.72;2.90;;;46.50;28.00;;;;;;4879829;28;87131;-73
2022/07/09 09:26:16;;;;;;;3.72;3.33;;;48.10;26.50;;;;;;4880604;28;86997;-74
2022/07/09 09:28:55;;;;;;;4.63;3.40;;;47.70;27.00;;;;;;4880833;28;86617;-72
2022/07/09 09:31:32;;;;;;;6.80;3.45;;;47.30;27.00;;;;;;4869669;28;87056;-74
2022/07/09 09:34:13;;;;;;;4.47;2.90;;;45.60;27.70;;;;;;4869943;28;88381;-73
2022/07/09 09:36:57;;;;;;;3.70;3.03;;;45.80;26.80;;;;;;4877305;28;87461;-73
2022/07/09 09:39:31;;;;;;;3.60;1.88;;;45.30;28.40;;;;;;4880975;28;87243;-75
2022/07/09 09:41:59;;;;;;;3.90;2.78;;;47.00;27.30;;;;;;4871013;28;87757;-75
2022/07/09 09:44:36;;;;;;;2.42;1.80;;;46.00;27.80;;;;;;4876719;28;86578;-73
2022/07/09 09:47:02;;;;;;;4.32;2.78;;;46.30;28.40;;;;;;4873945;28;87033;-74
2022/07/09 09:49:28;;;;;;;3.47;3.08;;;48.60;26.90;;;;;;4874512;28;87114;-72
2022/07/09 09:52:00;;;;;;;5.70;3.15;;;49.60;26.50;;;;;;4869133;28;87247;-73
2022/07/09 09:54:26;;;;;;;3.70;2.95;;;48.50;26.70;;;;;;4875196;28;86986;-73
2022/07/09 09:56:53;;;;;;;7.03;4.32;;;48.20;27.00;;;;;;4881068;28;87098;-73
2022/07/09 09:59:20;;;;;;;3.33;2.45;;;46.30;27.00;;;;;;4880882;28;86916;-73
2022/07/09 10:01:46;;;;;;;8.85;3.92;;;46.60;27.20;;;;;;4878438;28;89161;-74
2022/07/09 10:04:14;;;;;;;3.65;2.85;;;47.20;27.60;;;;;;4880079;28;88182;-71
2022/07/09 10:06:41;;;;;;;4.38;2.40;;;44.80;28.30;;;;;;4879852;28;87368;-75
2022/07/09 10:09:11;;;;;;;4.45;3.10;;;44.70;28.50;;;;;;4873837;28;86971;-74
2022/07/09 10:11:40;;;;;;;3.15;2.85;;;43.00;29.20;;;;;;4881075;28;86950;-74
2022/07/09 10:14:07;;;;;;;5.50;3.00;;;41.70;28.90;;;;;;4880883;28;87294;-75
2022/07/09 10:16:37;;;;;;;5.43;2.78;;;40.80;28.50;;;;;;4881128;28;87045;-74
2022/07/09 10:19:03;;;;;;;4.95;2.22;;;38.10;32.10;;;;;;4881603;28;86306;-74
2022/07/09 10:21:37;;;;;;;3.20;2.17;;;36.60;33.00;;;;;;4880679;28;86998;-74
2022/07/09 10:24:04;;;;;;;2.97;2.13;;;35.60;33.20;;;;;;4880606;28;87171;-74
2022/07/09 10:26:42;;;;;;;4.50;1.27;;;34.00;33.70;;;;;;4879217;28;87991;-73
2022/07/09 10:29:25;;;;;;;8.45;2.03;;;32.70;36.10;;;;;;4880315;28;86920;-72
2022/07/09 10:31:52;;;;;;;3.53;1.13;;;32.20;37.90;;;;;;4871365;28;87231;-72
2022/07/09 10:34:30;;;;;;;4.40;1.83;;;30.90;38.40;;;;;;4879808;28;87085;-72
2022/07/09 10:37:01;;;;;;;4.15;1.00;;;30.20;38.40;;;;;;4873333;28;87270;-74
2022/07/09 10:39:27;;;;;;;2.15;0.80;;;29.80;39.00;;;;;;4880001;28;87137;-72
2022/07/09 10:42:23;;;;;;;3.95;1.20;;;28.70;41.40;;;;;;4880734;28;87298;-71
2022/07/09 10:44:51;;;;;;;3.45;0.70;;;28.30;43.50;;;;;;4857396;28;87680;-73
2022/07/09 10:47:16;;;;;;;2.15;0.68;;;28.00;43.30;;;;;;4880373;28;86821;-73
2022/07/09 10:49:42;;;;;;;2.88;0.80;;;27.40;45.90;;;;;;4881194;28;86985;-73
2022/07/09 10:52:09;;;;;;;2.03;0.75;;;27.50;43.00;;;;;;4879646;28;88597;-72
2022/07/09 10:54:45;;;;;;;2.97;0.60;;;27.70;45.00;;;;;;4880429;28;88371;-73
2022/07/09 10:57:13;;;;;;;2.35;0.63;;;28.20;43.50;;;;;;4880558;28;86908;-74
2022/07/09 10:59:38;;;;;;;2.95;0.70;;;28.60;42.40;;;;;;4880300;28;87099;-73
2022/07/09 11:02:04;;;;;;;2.42;0.60;;;27.60;44.20;;;;;;4879809;28;87769;-72
2022/07/09 11:04:31;;;;;;;2.28;0.73;;;27.60;45.00;;;;;;4870353;28;87072;-72
2022/07/09 11:06:58;;;;;;;1.70;0.75;;;28.00;42.40;;;;;;4878722;28;86672;-73
2022/07/09 11:09:30;;;;;;;4.00;0.75;;;28.10;39.20;;;;;;4881189;28;87273;-72
2022/07/09 11:11:56;;;;;;;2.10;0.50;;;28.00;38.90;;;;;;4876674;28;86984;-72
2022/07/09 11:14:22;;;;;;;4.22;0.80;;;28.20;42.00;;;;;;4871554;28;86920;-73
2022/07/09 11:16:58;;;;;;;4.88;0.85;;;27.60;42.60;;;;;;4875700;28;87983;-72
2022/07/09 11:19:24;;;;;;;3.28;0.65;;;27.30;44.30;;;;;;4873074;28;87010;-72
2022/07/09 11:21:59;;;;;;;2.42;0.65;;;27.70;43.20;;;;;;4879690;28;88095;-73
2022/07/09 11:24:26;;;;;;;4.47;0.50;;;27.70;41.80;;;;;;4867813;28;87821;-72
2022/07/09 11:26:51;;;;;;;2.97;0.60;;;27.60;40.10;;;;;;4880093;28;86902;-74
2022/07/09 11:29:17;;;;;;;1.65;0.63;;;27.40;39.50;;;;;;4880121;28;87075;-72
2022/07/09 11:31:51;;;;;;;1.80;0.47;;;27.40;41.80;;;;;;4879325;28;87270;-72
2022/07/09 11:34:18;;;;;;;4.43;0.60;;;27.00;45.30;;;;;;4880020;28;87533;-71
2022/07/09 11:36:46;;;;;;;1.65;0.50;;;26.80;42.70;;;;;;4868236;28;87205;-74
2022/07/09 11:39:30;;;;;;;3.22;0.90;;;26.80;47.50;;;;;;4879830;28;87470;-73
2022/07/09 11:41:58;;;;;;;3.70;0.80;;;26.80;45.70;;;;;;4879120;28;88278;-71
2022/07/09 11:44:34;;;;;;;1.63;0.50;;;27.00;45.30;;;;;;4879633;28;87784;-71
2022/07/09 11:47:03;;;;;;;1.20;0.40;;;27.20;40.50;;;;;;4880484;28;87401;-71
2022/07/09 11:49:41;;;;;;;3.30;0.70;;;27.10;43.80;;;;;;4879942;28;86955;-70
2022/07/09 11:52:24;;;;;;;3.40;0.50;;;26.80;44.60;;;;;;4879857;28;87075;-72
2022/07/09 11:55:09;;;;;;;2.58;0.35;;;26.80;43.40;;;;;;4869634;28;87816;-73
2022/07/09 11:57:36;;;;;;;1.40;0.60;;;27.00;43.20;;;;;;4879702;28;86877;-72
2022/07/09 12:00:21;;;;;;;1.23;0.60;;;26.60;47.40;;;;;;4880838;28;86131;-73
2022/07/09 12:02:47;;;;;;;1.90;0.60;;;26.70;41.70;;;;;;4866819;28;86725;-74
2022/07/09 12:05:23;;;;;;;2.92;0.50;;;26.60;41.80;;;;;;4879453;28;87332;-71
2022/07/09 12:07:52;;;;;;;3.33;0.65;;;26.20;45.10;;;;;;4870748;28;88385;-70
2022/07/09 12:10:29;;;;;;;3.03;0.50;;;26.60;44.70;;;;;;4877209;28;88880;-72
2022/07/09 12:12:55;;;;;;;5.55;0.75;;;26.90;45.50;;;;;;4879867;28;87665;-71
2022/07/09 12:15:21;;;;;;;3.05;0.57;;;27.10;46.10;;;;;;4879211;28;86888;-74
2022/07/09 12:17:52;;;;;;;1.90;0.40;;;26.90;43.50;;;;;;4879405;28;86993;-72
2022/07/09 12:20:18;;;;;;;5.70;0.80;;;26.80;43.10;;;;;;4877623;28;87353;-71
2022/07/09 12:22:44;;;;;;;2.42;0.45;;;26.30;45.80;;;;;;4879206;28;88331;-70
2022/07/09 12:25:10;;;;;;;3.63;0.55;;;26.30;46.70;;;;;;4879627;28;86198;-70
2022/07/09 12:27:35;;;;;;;1.95;0.60;;;26.10;45.10;;;;;;4880190;28;86918;-72
2022/07/09 12:30:01;;;;;;;2.80;0.40;;;26.30;43.80;;;;;;4879215;28;87076;-74
2022/07/09 12:32:27;;;;;;;2.47;0.43;;;26.50;47.60;;;;;;4878337;28;88604;-70
2022/07/09 12:34:53;;;;;;;4.07;0.85;;;26.80;48.20;;;;;;4879840;28;87917;-71
2022/07/09 12:37:18;;;;;;;2.45;0.40;;;26.50;46.60;;;;;;4880001;28;86969;-71
2022/07/09 12:39:44;;;;;;;2.28;0.50;;;26.40;46.90;;;;;;4879710;28;87068;-71
2022/07/09 12:42:10;;;;;;;1.52;0.63;;;26.70;47.90;;;;;;4880120;28;87415;-73
2022/07/09 12:44:36;;;;;;;1.67;0.50;;;26.60;44.90;;;;;;4880146;28;87078;-71
2022/07/09 12:47:01;;;;;;;2.33;0.40;;;26.30;48.10;;;;;;4880594;28;86865;-73
2022/07/09 12:49:27;;;;;;;2.65;0.60;;;26.20;48.20;;;;;;4881136;28;86348;-73
2022/07/09 12:51:53;;;;;;;3.35;0.60;;;26.30;49.10;;;;;;4883409;28;87303;-73
2022/07/09 12:54:18;;;;;;;1.52;0.77;;;26.60;46.90;;;;;;4865511;28;87341;-77
2022/07/09 12:56:44;;;;;;;1.95;0.40;;;26.40;45.30;;;;;;4847361;28;88454;-77
2022/07/09 12:59:10;;;;;;;2.58;0.57;;;26.20;45.70;;;;;;4848472;28;87593;-76
2022/07/09 13:01:35;;;;;;;1.90;0.70;;;26.20;48.50;;;;;;4841768;28;87947;-77
2022/07/09 13:04:01;;;;;;;1.88;0.80;;;26.30;49.20;;;;;;4845918;28;87976;-75
2022/07/09 13:06:33;;;;;;;2.60;0.82;;;26.30;43.40;;;;;;4847371;28;87402;-77
2022/07/09 13:09:00;;;;;;;3.78;0.52;;;26.20;47.20;;;;;;4847980;28;88357;-75
2022/07/09 13:11:26;;;;;;;1.42;0.50;;;26.40;47.30;;;;;;4842269;28;87513;-76
2022/07/09 13:13:52;;;;;;;1.23;0.47;;;26.10;46.40;;;;;;4847274;28;87300;-73
2022/07/09 13:16:18;;;;;;;1.45;0.52;;;26.10;46.40;;;;;;4846527;28;87590;-78
2022/07/09 13:18:43;;;;;;;1.33;0.50;;;26.20;43.90;;;;;;4840900;28;87468;-78
2022/07/09 13:21:09;;;;;;;1.65;0.32;;;26.40;44.90;;;;;;4845782;28;88663;-76
2022/07/09 13:23:35;;;;;;;5.45;0.63;;;26.10;44.60;;;;;;4837709;28;88461;-76
2022/07/09 13:26:01;;;;;;;3.53;0.52;;;26.10;46.40;;;;;;4836707;28;87761;-76
2022/07/09 13:28:27;;;;;;;2.60;0.52;;;26.30;45.10;;;;;;4837810;28;87255;-77
2022/07/09 13:30:53;;;;;;;1.25;0.40;;;26.20;45.00;;;;;;4833202;28;88351;-76
2022/07/09 13:33:19;;;;;;;1.83;0.50;;;26.00;45.20;;;;;;4842912;28;87641;-77
2022/07/09 13:35:45;;;;;;;1.50;0.25;;;26.10;47.10;;;;;;4830470;28;87610;-75
2022/07/09 13:38:10;;;;;;;1.15;0.30;;;26.50;45.30;;;;;;4843494;28;86987;-76
2022/07/09 13:40:36;;;;;;;1.67;0.47;;;26.40;44.90;;;;;;4842188;28;87967;-78
2022/07/09 13:43:02;;;;;;;1.70;0.32;;;26.50;43.20;;;;;;4841938;28;87498;-77
2022/07/09 13:45:28;;;;;;;1.75;0.57;;;26.70;44.30;;;;;;4840447;28;88444;-76
2022/07/09 13:47:54;;;;;;;1.23;0.30;;;26.70;43.30;;;;;;4841695;28;87768;-75
2022/07/09 13:50:21;;;;;;;2.20;0.35;;;26.60;43.20;;;;;;4846108;28;87909;-74
2022/07/09 13:52:48;;;;;;;0.75;0.20;;;26.30;43.20;;;;;;4831608;28;87797;-77
2022/07/09 13:55:13;;;;;;;3.65;0.35;;;26.40;43.10;;;;;;4834517;28;87591;-75
2022/07/09 13:57:39;;;;;;;1.17;0.32;;;26.30;43.10;;;;;;4836009;28;87270;-76
2022/07/09 14:00:06;;;;;;;1.05;0.20;;;26.50;43.40;;;;;;4831292;28;88497;-76
2022/07/09 14:02:33;;;;;;;2.13;0.40;;;26.60;42.30;;;;;;4842359;28;87106;-77
2022/07/09 14:04:59;;;;;;;1.10;0.45;;;26.60;41.50;;;;;;4846829;28;87249;-76
2022/07/09 14:07:25;;;;;;;1.98;0.43;;;26.50;43.30;;;;;;4848245;28;87693;-78
2022/07/09 14:09:51;;;;;;;0.77;0.22;;;26.60;42.60;;;;;;4849665;28;88794;-79
2022/07/09 14:12:17;;;;;;;1.70;0.32;;;26.40;43.20;;;;;;4850095;28;88095;-76
2022/07/09 14:14:43;;;;;;;1.58;0.40;;;26.40;42.80;;;;;;4849063;28;87909;-77
2022/07/09 14:17:09;;;;;;;2.08;0.43;;;26.10;42.60;;;;;;4848554;28;87694;-79
2022/07/09 14:19:35;;;;;;;1.55;0.57;;;26.00;42.50;;;;;;4855371;28;87962;-78
2022/07/09 14:22:01;;;;;;;1.13;0.35;;;25.90;44.40;;;;;;4850565;28;87689;-76
2022/07/09 14:24:27;;;;;;;2.00;0.22;;;26.10;44.70;;;;;;4850782;28;87352;-78
2022/07/09 14:26:52;;;;;;;1.15;0.25;;;26.30;43.90;;;;;;4855058;28;86229;-74
2022/07/09 14:29:18;;;;;;;4.10;0.70;;;26.50;41.70;;;;;;4849348;28;87587;-78
2022/07/09 14:31:44;;;;;;;2.22;0.63;;;26.30;41.90;;;;;;4849364;28;87542;-73
2022/07/09 14:34:10;;;;;;;2.33;0.30;;;26.30;39.60;;;;;;4843917;28;89236;-77
2022/07/09 14:36:36;;;;;;;1.80;0.22;;;26.30;38.10;;;;;;4849645;28;87641;-76
2022/07/09 14:39:03;;;;;;;3.70;0.50;;;26.30;42.00;;;;;;4845811;28;87600;-76
2022/07/09 14:41:30;;;;;;;1.13;0.85;;;26.30;40.60;;;;;;4837521;28;88944;-75
2022/07/09 14:43:55;;;;;;;2.65;0.40;;;26.10;41.60;;;;;;4839431;28;87633;-76
2022/07/09 14:46:21;;;;;;;1.17;0.43;;;26.10;40.90;;;;;;4836604;28;87233;-76
2022/07/09 14:48:47;;;;;;;2.03;0.40;;;26.10;42.00;;;;;;4841153;28;88173;-76
2022/07/09 14:51:13;;;;;;;0.90;0.40;;;26.20;42.80;;;;;;4838142;28;87542;-75
2022/07/09 14:53:39;;;;;;;4.28;0.40;;;26.40;42.10;;;;;;4835879;28;87488;-76
2022/07/09 14:56:05;;;;;;;1.40;0.43;;;26.40;40.80;;;;;;4839194;28;87282;-76
2022/07/09 14:58:31;;;;;;;2.58;0.60;;;26.40;40.80;;;;;;4834158;28;89023;-75
2022/07/09 15:00:57;;;;;;;0.95;0.43;;;26.30;43.00;;;;;;4842135;28;88804;-74
2022/07/09 15:03:23;;;;;;;1.98;0.30;;;26.30;41.60;;;;;;4841597;28;87703;-74
2022/07/09 15:05:49;;;;;;;1.13;0.22;;;26.20;41.70;;;;;;4841674;28;87730;-76
2022/07/09 15:08:15;;;;;;;0.73;0.25;;;26.30;42.00;;;;;;4843099;28;87367;-75
2022/07/09 15:10:41;;;;;;;1.00;0.30;;;26.10;44.00;;;;;;4841516;28;87779;-75
2022/07/09 15:13:07;;;;;;;1.80;0.60;;;26.30;40.70;;;;;;4842317;28;87359;-76
2022/07/09 15:15:34;;;;;;;0.93;0.70;;;26.30;42.50;;;;;;4842173;28;86913;-76
2022/07/09 15:18:00;;;;;;;1.13;0.22;;;26.10;44.60;;;;;;4841823;28;87459;-76
2022/07/09 15:20:27;;;;;;;1.83;0.40;;;26.10;44.30;;;;;;4837321;28;87243;-74
2022/07/09 15:22:52;;;;;;;2.75;0.43;;;26.10;43.30;;;;;;4832985;28;88586;-76
2022/07/09 15:25:18;;;;;;;1.98;0.60;;;26.00;44.10;;;;;;4839081;28;87741;-76
2022/07/09 15:27:44;;;;;;;2.05;0.77;;;26.00;45.00;;;;;;4838336;28;87665;-76
2022/07/09 15:30:10;;;;;;;2.15;0.32;;;26.10;45.20;;;;;;4837446;28;88286;-76
2022/07/09 15:32:35;;;;;;;1.55;0.40;;;26.20;42.10;;;;;;4832924;28;87728;-75
2022/07/09 15:35:01;;;;;;;1.83;0.95;;;26.30;43.60;;;;;;4840006;28;87657;-76
2022/07/09 15:37:27;;;;;;;1.40;0.43;;;26.40;43.30;;;;;;4836465;28;89425;-78
2022/07/09 15:39:52;;;;;;;1.85;0.40;;;26.40;44.00;;;;;;4838698;28;87581;-77
2022/07/09 15:42:18;;;;;;;2.70;0.30;;;26.50;42.50;;;;;;4841564;28;88813;-77
2022/07/09 15:44:44;;;;;;;3.40;0.52;;;26.90;41.20;;;;;;4837094;28;88588;-74
2022/07/09 15:47:09;;;;;;;1.25;0.40;;;26.80;44.30;;;;;;4838795;28;88696;-76